Time;durP1;ratioP1;P1;durP2;ratioP2;P2;SDS_P1;SDS_P2;PMS_P1;PMS_P2;Temp;Humidity;BMP_temperature;BMP_pressure;BME280_temperature;BME280_humidity;BME280_pressure;Samples;Min_cycle;Max_cycle;Signal;HPM_P1;HPM_P2
2022/05/23 00:01:12;;;;;;;;;;;;;;;;;;5014849;28;794;-65
2022/05/23 00:03:37;;;;;;;;;;;;;;;;;;5015023;28;1874;-68
2022/05/23 00:06:03;;;;;;;;;;;;;;;;;;5014178;28;837;-68
2022/05/23 00:08:28;;;;;;;;;;;;;;;;;;4981703;28;1171;-68
2022/05/23 00:10:54;;;;;;;;;;;;;;;;;;5014603;28;897;-68
2022/05/23 00:13:19;;;;;;;;;;;;;;;;;;5014193;28;906;-68
2022/05/23 00:15:44;;;;;;;;;;;;;;;;;;5014666;28;778;-68
2022/05/23 00:18:09;;;;;;;;;;;;;;;;;;5014100;28;844;-68
2022/05/23 00:20:34;;;;;;;;;;;;;;;;;;5014980;28;1004;-65
2022/05/23 00:23:00;;;;;;;;;;;;;;;;;;5014486;28;1184;-65
2022/05/23 00:25:26;;;;;;;;;;;;;;;;;;4996058;28;1894;-66
2022/05/23 00:27:52;;;;;;;;;;;;;;;;;;5014687;28;938;-65
2022/05/23 00:30:23;;;;;;;;;;;;;;;;;;4997579;28;841;-65
2022/05/23 00:35:32;;;;;;;;;;;;;;;;;;5013977;28;723;-66
2022/05/23 00:37:58;;;;;;;;;;;;;;;;;;5013861;28;833;-66
2022/05/23 00:40:38;;;;;;;;;;;;;;;;;;5013063;28;1101;-66
2022/05/23 00:43:15;;;;;;;;;;;;;;;;;;5013598;28;869;-66
2022/05/23 00:45:51;;;;;;;;;;;;;;;;;;5013378;28;1973;-66
2022/05/23 00:48:17;;;;;;;;;;;;;;;;;;4995345;28;862;-66
2022/05/23 00:50:45;;;;;;;;;;;;;;;;;;5013077;28;842;-66
2022/05/23 00:53:12;;;;;;;;;;;;;;;;;;5012708;28;858;-66
2022/05/23 00:55:41;;;;;;;;;;;;;;;;;;5013719;28;944;-66
2022/05/23 00:58:15;;;;;;;;;;;;;;;;;;5012926;28;928;-66
2022/05/23 01:00:40;;;;;;;;;;;;;;;;;;5013321;28;1108;-65
2022/05/23 01:03:11;;;;;;;;;;;;;;;;;;5013184;28;1000;-66
2022/05/23 01:05:37;;;;;;;;;;;;;;;;;;4995738;28;1965;-66
2022/05/23 01:08:03;;;;;;;;;;;;;;;;;;5013404;28;968;-66
2022/05/23 01:10:30;;;;;;;;;;;;;;;;;;4978894;28;1769;-66
2022/05/23 01:12:55;;;;;;;;;;;;;;;;;;5013136;28;881;-65
2022/05/23 01:15:25;;;;;;;;;;;;;;;;;;5012858;28;829;-66
2022/05/23 01:17:51;;;;;;;;;;;;;;;;;;5013086;28;1691;-66
2022/05/23 01:20:17;;;;;;;;;;;;;;;;;;5011045;28;1185;-66
2022/05/23 01:22:42;;;;;;;;;;;;;;;;;;5011124;28;1248;-65
2022/05/23 01:25:26;;;;;;;;;;;;;;;;;;5011663;28;1870;-66
2022/05/23 01:27:51;;;;;;;;;;;;;;;;;;5011191;28;1161;-66
2022/05/23 01:30:17;;;;;;;;;;;;;;;;;;5010687;28;1146;-65
2022/05/23 01:32:42;;;;;;;;;;;;;;;;;;5011215;28;1228;-66
2022/05/23 01:35:09;;;;;;;;;;;;;;;;;;5011972;28;1174;-66
2022/05/23 01:37:35;;;;;;;;;;;;;;;;;;5013134;28;770;-66
2022/05/23 01:40:00;;;;;;;;;;;;;;;;;;5012557;28;1082;-65
2022/05/23 01:42:25;;;;;;;;;;;;;;;;;;5012284;28;1079;-66
2022/05/23 01:44:51;;;;;;;;;;;;;;;;;;5012890;28;1978;-65
2022/05/23 01:47:18;;;;;;;;;;;;;;;;;;5011778;28;1059;-66
2022/05/23 01:49:43;;;;;;;;;;;;;;;;;;5013087;28;893;-65
2022/05/23 01:52:09;;;;;;;;;;;;;;;;;;4995251;28;834;-66
2022/05/23 01:54:34;;;;;;;;;;;;;;;;;;5012783;28;783;-66
2022/05/23 01:57:00;;;;;;;;;;;;;;;;;;4995099;28;893;-66
2022/05/23 02:02:09;;;;;;;;;;;;;;;;;;4997664;28;700;-65
2022/05/23 02:04:34;;;;;;;;;;;;;;;;;;5012108;28;1894;-66
2022/05/23 02:07:00;;;;;;;;;;;;;;;;;;5011893;28;872;-65
2022/05/23 02:09:28;;;;;;;;;;;;;;;;;;5011380;28;876;-65
2022/05/23 02:11:53;;;;;;;;;;;;;;;;;;5012249;28;876;-66
2022/05/23 02:14:19;;;;;;;;;;;;;;;;;;5010429;28;889;-66
2022/05/23 02:16:44;;;;;;;;;;;;;;;;;;5011853;28;869;-65
2022/05/23 02:19:09;;;;;;;;;;;;;;;;;;5012015;28;952;-66
2022/05/23 02:21:35;;;;;;;;;;;;;;;;;;5012128;28;834;-66
2022/05/23 02:24:03;;;;;;;;;;;;;;;;;;5012271;28;1901;-66
2022/05/23 02:26:29;;;;;;;;;;;;;;;;;;5011474;28;821;-65
2022/05/23 02:28:54;;;;;;;;;;;;;;;;;;5012138;28;975;-66
2022/05/23 02:31:19;;;;;;;;;;;;;;;;;;5011676;28;905;-66
2022/05/23 02:33:44;;;;;;;;;;;;;;;;;;5011748;28;901;-66
2022/05/23 02:36:10;;;;;;;;;;;;;;;;;;5011745;28;944;-65
2022/05/23 02:38:35;;;;;;;;;;;;;;;;;;5011328;28;1084;-66
2022/05/23 02:41:00;;;;;;;;;;;;;;;;;;5011783;28;913;-66
2022/05/23 02:43:27;;;;;;;;;;;;;;;;;;5011097;28;1918;-65
2022/05/23 02:45:52;;;;;;;;;;;;;;;;;;4993710;28;1366;-66
2022/05/23 02:48:17;;;;;;;;;;;;;;;;;;5011257;28;1229;-65
2022/05/23 02:50:43;;;;;;;;;;;;;;;;;;5011232;28;983;-65
2022/05/23 02:53:08;;;;;;;;;;;;;;;;;;5011438;28;873;-66
2022/05/23 02:55:33;;;;;;;;;;;;;;;;;;5011350;28;814;-66
2022/05/23 02:57:59;;;;;;;;;;;;;;;;;;5011208;28;802;-66
2022/05/23 03:00:24;;;;;;;;;;;;;;;;;;5010875;28;873;-66
2022/05/23 03:03:01;;;;;;;;;;;;;;;;;;5011510;28;964;-66
2022/05/23 03:05:27;;;;;;;;;;;;;;;;;;5011049;28;1914;-66
2022/05/23 03:07:52;;;;;;;;;;;;;;;;;;5011802;28;1055;-66
2022/05/23 03:10:17;;;;;;;;;;;;;;;;;;5011174;28;779;-65
2022/05/23 03:12:42;;;;;;;;;;;;;;;;;;5011648;28;880;-65
2022/05/23 03:15:08;;;;;;;;;;;;;;;;;;5010904;28;885;-66
2022/05/23 03:17:34;;;;;;;;;;;;;;;;;;4992997;28;846;-66
2022/05/23 03:19:59;;;;;;;;;;;;;;;;;;4993558;28;1462;-65
2022/05/23 03:27:53;;;;;;;;;;;;;;;;;;5011282;28;683;-66
2022/05/23 03:30:18;;;;;;;;;;;;;;;;;;5011301;28;873;-66
2022/05/23 03:32:43;;;;;;;;;;;;;;;;;;5011233;28;842;-65
2022/05/23 03:35:09;;;;;;;;;;;;;;;;;;5011606;28;794;-65
2022/05/23 03:37:34;;;;;;;;;;;;;;;;;;5011317;28;1059;-65
2022/05/23 03:40:03;;;;;;;;;;;;;;;;;;5010848;28;1137;-66
2022/05/23 03:42:29;;;;;;;;;;;;;;;;;;5011141;28;966;-66
2022/05/23 03:44:54;;;;;;;;;;;;;;;;;;5011858;28;1968;-66
2022/05/23 03:47:20;;;;;;;;;;;;;;;;;;5011127;28;976;-66
2022/05/23 03:49:45;;;;;;;;;;;;;;;;;;5011299;28;1012;-66
2022/05/23 03:52:10;;;;;;;;;;;;;;;;;;5011226;28;888;-66
2022/05/23 03:54:35;;;;;;;;;;;;;;;;;;5011016;28;820;-66
2022/05/23 03:57:02;;;;;;;;;;;;;;;;;;5010678;28;900;-66
2022/05/23 03:59:28;;;;;;;;;;;;;;;;;;5010625;28;881;-66
2022/05/23 04:01:55;;;;;;;;;;;;;;;;;;5010342;28;1122;-66
2022/05/23 04:04:21;;;;;;;;;;;;;;;;;;5007725;28;1902;-66
2022/05/23 04:06:47;;;;;;;;;;;;;;;;;;5008569;28;1180;-66
2022/05/23 04:09:12;;;;;;;;;;;;;;;;;;5009152;28;1162;-65
2022/05/23 04:11:37;;;;;;;;;;;;;;;;;;4992792;28;1670;-66
2022/05/23 04:14:02;;;;;;;;;;;;;;;;;;4993398;28;932;-66
2022/05/23 04:16:29;;;;;;;;;;;;;;;;;;5010577;28;1079;-66
2022/05/23 04:18:55;;;;;;;;;;;;;;;;;;5010799;28;1736;-66
2022/05/23 04:21:20;;;;;;;;;;;;;;;;;;5010622;28;794;-66
2022/05/23 04:23:46;;;;;;;;;;;;;;;;;;5010138;28;1898;-66
2022/05/23 04:26:12;;;;;;;;;;;;;;;;;;5011115;28;872;-66
2022/05/23 04:28:39;;;;;;;;;;;;;;;;;;5014152;28;878;-66
2022/05/23 04:31:04;;;;;;;;;;;;;;;;;;5014224;28;927;-66
2022/05/23 04:36:13;;;;;;;;;;;;;;;;;;5018002;28;628;-66
2022/05/23 04:38:39;;;;;;;;;;;;;;;;;;5000191;28;1051;-67
2022/05/23 04:41:07;;;;;;;;;;;;;;;;;;5017825;28;988;-67
2022/05/23 04:43:33;;;;;;;;;;;;;;;;;;5018159;28;1914;-66
2022/05/23 04:45:58;;;;;;;;;;;;;;;;;;5018332;28;939;-66
2022/05/23 04:51:08;;;;;;;;;;;;;;;;;;5018765;28;775;-65
2022/05/23 04:53:34;;;;;;;;;;;;;;;;;;5017533;28;1236;-66
2022/05/23 04:56:00;;;;;;;;;;;;;;;;;;5017076;28;1003;-66
2022/05/23 04:58:25;;;;;;;;;;;;;;;;;;4999065;28;1413;-66
2022/05/23 05:00:50;;;;;;;;;;;;;;;;;;5016857;28;861;-66
2022/05/23 05:03:16;;;;;;;;;;;;;;;;;;5016615;28;905;-66
2022/05/23 05:05:41;;;;;;;;;;;;;;;;;;5015417;28;1926;-66
2022/05/23 05:08:07;;;;;;;;;;;;;;;;;;5014592;28;775;-66
2022/05/23 05:10:32;;;;;;;;;;;;;;;;;;5014815;28;1201;-67
2022/05/23 05:12:58;;;;;;;;;;;;;;;;;;5014003;28;885;-67
2022/05/23 05:15:24;;;;;;;;;;;;;;;;;;5014169;28;945;-67
2022/05/23 05:17:50;;;;;;;;;;;;;;;;;;5014033;28;893;-67
2022/05/23 05:20:15;;;;;;;;;;;;;;;;;;5014315;28;960;-67
2022/05/23 05:22:41;;;;;;;;;;;;;;;;;;5014735;28;884;-67
2022/05/23 05:25:07;;;;;;;;;;;;;;;;;;5014180;28;1894;-67
2022/05/23 05:27:33;;;;;;;;;;;;;;;;;;5013812;28;905;-67
2022/05/23 05:29:59;;;;;;;;;;;;;;;;;;5014304;28;808;-67
2022/05/23 05:32:32;;;;;;;;;;;;;;;;;;5014430;28;806;-67
2022/05/23 05:35:02;;;;;;;;;;;;;;;;;;5013300;28;932;-67
2022/05/23 05:37:30;;;;;;;;;;;;;;;;;;5013466;28;1036;-67
2022/05/23 05:39:57;;;;;;;;;;;;;;;;;;5013232;28;1058;-67
2022/05/23 05:42:26;;;;;;;;;;;;;;;;;;5013286;28;955;-67
2022/05/23 05:44:58;;;;;;;;;;;;;;;;;;5013821;28;1910;-67
2022/05/23 05:47:23;;;;;;;;;;;;;;;;;;4999485;28;1114;-67
2022/05/23 05:49:51;;;;;;;;;;;;;;;;;;5019632;28;1177;-66
2022/05/23 05:52:18;;;;;;;;;;;;;;;;;;5006765;28;1178;-67
2022/05/23 05:54:43;;;;;;;;;;;;;;;;;;5011818;28;1154;-66
2022/05/23 05:57:11;;;;;;;;;;;;;;;;;;5012804;28;852;-66
2022/05/23 05:59:36;;;;;;;;;;;;;;;;;;4994172;28;1645;-67
2022/05/23 06:02:02;;;;;;;;;;;;;;;;;;5012378;28;805;-67
2022/05/23 06:04:27;;;;;;;;;;;;;;;;;;5012484;28;1915;-66
2022/05/23 06:12:20;;;;;;;;;;;;;;;;;;5012631;28;793;-66
2022/05/23 06:14:45;;;;;;;;;;;;;;;;;;5012607;28;826;-66
2022/05/23 06:17:11;;;;;;;;;;;;;;;;;;4994513;28;984;-67
2022/05/23 06:19:41;;;;;;;;;;;;;;;;;;5011832;28;973;-67
2022/05/23 06:22:06;;;;;;;;;;;;;;;;;;5011932;28;983;-66
2022/05/23 06:24:32;;;;;;;;;;;;;;;;;;5012327;28;1910;-66
2022/05/23 06:26:57;;;;;;;;;;;;;;;;;;5012046;28;841;-66
2022/05/23 06:29:22;;;;;;;;;;;;;;;;;;4994012;28;877;-66
2022/05/23 06:31:47;;;;;;;;;;;;;;;;;;4994157;28;904;-67
2022/05/23 06:34:13;;;;;;;;;;;;;;;;;;5012331;28;818;-66
2022/05/23 06:36:38;;;;;;;;;;;;;;;;;;5012353;28;829;-67
2022/05/23 06:39:04;;;;;;;;;;;;;;;;;;5011562;28;1209;-66
2022/05/23 06:41:29;;;;;;;;;;;;;;;;;;5011443;28;912;-66
2022/05/23 06:43:54;;;;;;;;;;;;;;;;;;5012109;28;1972;-66
2022/05/23 06:46:19;;;;;;;;;;;;;;;;;;5011787;28;849;-66
2022/05/23 06:48:45;;;;;;;;;;;;;;;;;;5010606;28;1530;-66
2022/05/23 06:51:12;;;;;;;;;;;;;;;;;;5010194;28;1524;-67
2022/05/23 06:53:38;;;;;;;;;;;;;;;;;;4992378;28;1340;-67
2022/05/23 06:56:03;;;;;;;;;;;;;;;;;;5010487;28;1649;-66
2022/05/23 06:58:29;;;;;;;;;;;;;;;;;;5011884;28;1068;-67
2022/05/23 07:00:54;;;;;;;;;;;;;;;;;;5011711;28;807;-66
2022/05/23 07:03:20;;;;;;;;;;;;;;;;;;5011789;28;810;-66
2022/05/23 07:13:58;;;;;;;;;;;;;;;;;;5011832;28;642;-66
2022/05/23 07:16:24;;;;;;;;;;;;;;;;;;5011428;28;823;-66
2022/05/23 07:18:49;;;;;;;;;;;;;;;;;;4993651;28;1008;-66
2022/05/23 07:21:15;;;;;;;;;;;;;;;;;;5010410;28;917;-67
2022/05/23 07:23:41;;;;;;;;;;;;;;;;;;5011119;28;1951;-67
2022/05/23 07:26:08;;;;;;;;;;;;;;;;;;4993400;28;872;-67
2022/05/23 07:28:35;;;;;;;;;;;;;;;;;;5011271;28;763;-66
2022/05/23 07:31:00;;;;;;;;;;;;;;;;;;5011231;28;818;-67
2022/05/23 07:33:25;;;;;;;;;;;;;;;;;;5010303;28;909;-67
2022/05/23 07:35:58;;;;;;;;;;;;;;;;;;5011280;28;819;-67
2022/05/23 07:38:23;;;;;;;;;;;;;;;;;;5010742;28;1063;-66
2022/05/23 07:40:50;;;;;;;;;;;;;;;;;;5011349;28;923;-66
2022/05/23 07:43:16;;;;;;;;;;;;;;;;;;5010704;28;814;-67
2022/05/23 07:45:41;;;;;;;;;;;;;;;;;;5010973;28;1890;-66
2022/05/23 07:48:07;;;;;;;;;;;;;;;;;;5010847;28;782;-67
2022/05/23 07:50:32;;;;;;;;;;;;;;;;;;5010695;28;996;-66
2022/05/23 08:01:10;;;;;;;;;;;;;;;;;;5013159;28;934;-67
2022/05/23 08:03:35;;;;;;;;;;;;;;;;;;5014026;28;1965;-67
2022/05/23 08:06:00;;;;;;;;;;;;;;;;;;5014054;28;822;-67
2022/05/23 08:08:26;;;;;;;;;;;;;;;;;;5014704;28;1442;-66
2022/05/23 08:10:51;;;;;;;;;;;;;;;;;;5014224;28;806;-67
2022/05/23 08:13:16;;;;;;;;;;;;;;;;;;5014018;28;948;-66
2022/05/23 08:15:41;;;;;;;;;;;;;;;;;;5014435;28;988;-67
2022/05/23 08:18:08;;;;;;;;;;;;;;;;;;5014433;28;884;-67
2022/05/23 08:20:34;;;;;;;;;;;;;;;;;;5014074;28;838;-67
2022/05/23 08:23:00;;;;;;;;;;;;;;;;;;5014374;28;926;-67
2022/05/23 08:25:26;;;;;;;;;;;;;;;;;;4995798;28;1899;-67
2022/05/23 08:27:53;;;;;;;;;;;;;;;;;;5014514;28;963;-66
2022/05/23 08:30:18;;;;;;;;;;;;;;;;;;5013641;28;865;-67
2022/05/23 08:32:44;;;;;;;;;;;;;;;;;;5013943;28;976;-67
2022/05/23 08:35:09;;;;;;;;;;;;;;;;;;5014399;28;873;-66
2022/05/23 08:37:35;;;;;;;;;;;;;;;;;;4997155;28;936;-67
2022/05/23 08:40:00;;;;;;;;;;;;;;;;;;4993103;28;1213;-66
2022/05/23 08:42:28;;;;;;;;;;;;;;;;;;4994159;28;950;-67
2022/05/23 08:45:03;;;;;;;;;;;;;;;;;;4994546;28;1918;-66
2022/05/23 08:47:38;;;;;;;;;;;;;;;;;;4994466;28;919;-67
2022/05/23 08:50:03;;;;;;;;;;;;;;;;;;4994582;28;965;-67
2022/05/23 08:52:37;;;;;;;;;;;;;;;;;;4994259;28;797;-66
2022/05/23 08:55:11;;;;;;;;;;;;;;;;;;4994834;28;841;-66
2022/05/23 08:57:36;;;;;;;;;;;;;;;;;;5009701;28;1208;-67
2022/05/23 09:00:04;;;;;;;;;;;;;;;;;;4994683;28;885;-67
2022/05/23 09:02:37;;;;;;;;;;;;;;;;;;4993729;28;1085;-67
2022/05/23 09:05:10;;;;;;;;;;;;;;;;;;4994007;28;1974;-67
2022/05/23 09:07:39;;;;;;;;;;;;;;;;;;4993648;28;794;-67
2022/05/23 09:10:28;;;;;;;;;;;;;;;;;;4994343;28;787;-67
2022/05/23 09:12:53;;;;;;;;;;;;;;;;;;4993471;28;854;-67
2022/05/23 09:15:19;;;;;;;;;;;;;;;;;;4993407;28;952;-67
2022/05/23 09:17:50;;;;;;;;;;;;;;;;;;4993878;28;770;-67
2022/05/23 09:20:41;;;;;;;;;;;;;;;;;;4993742;28;802;-67
2022/05/23 09:23:10;;;;;;;;;;;;;;;;;;4992472;28;1194;-67
2022/05/23 09:25:36;;;;;;;;;;;;;;;;;;4993253;28;1989;-67
2022/05/23 09:28:31;;;;;;;;;;;;;;;;;;4991595;28;1177;-67
2022/05/23 09:30:58;;;;;;;;;;;;;;;;;;4969141;28;1802;-67
2022/05/23 09:33:24;;;;;;;;;;;;;;;;;;4973471;28;833;-67
2022/05/23 09:36:07;;;;;;;;;;;;;;;;;;4973913;28;928;-67
2022/05/23 09:38:43;;;;;;;;;;;;;;;;;;4981148;28;1082;-67
2022/05/23 09:41:25;;;;;;;;;;;;;;;;;;5012832;28;979;-67
2022/05/23 09:49:21;;;;;;;;;;;;;;;;;;5012991;28;600;-67
2022/05/23 09:52:04;;;;;;;;;;;;;;;;;;5013075;28;1070;-67
2022/05/23 09:54:30;;;;;;;;;;;;;;;;;;5012876;28;888;-66
2022/05/23 09:56:56;;;;;;;;;;;;;;;;;;5013375;28;939;-68
2022/05/23 09:59:25;;;;;;;;;;;;;;;;;;5013023;28;1000;-66
2022/05/23 10:01:50;;;;;;;;;;;;;;;;;;5013736;28;936;-67
2022/05/23 10:04:17;;;;;;;;;;;;;;;;;;5012222;28;1902;-67
2022/05/23 10:06:48;;;;;;;;;;;;;;;;;;5012524;28;1036;-67
2022/05/23 10:09:31;;;;;;;;;;;;;;;;;;5012365;28;898;-67
2022/05/23 10:12:08;;;;;;;;;;;;;;;;;;5012874;28;829;-67
2022/05/23 10:14:40;;;;;;;;;;;;;;;;;;5012756;28;830;-67
2022/05/23 10:17:06;;;;;;;;;;;;;;;;;;5013385;28;909;-67
2022/05/23 10:19:33;;;;;;;;;;;;;;;;;;5012579;28;787;-67
2022/05/23 10:22:05;;;;;;;;;;;;;;;;;;5013584;28;763;-66
2022/05/23 10:24:31;;;;;;;;;;;;;;;;;;5014877;28;1890;-66
2022/05/23 10:27:02;;;;;;;;;;;;;;;;;;5016289;28;857;-67
2022/05/23 10:29:35;;;;;;;;;;;;;;;;;;5015437;28;954;-66
2022/05/23 10:32:01;;;;;;;;;;;;;;;;;;5016532;28;829;-67
2022/05/23 10:34:43;;;;;;;;;;;;;;;;;;5015967;28;862;-66
2022/05/23 10:37:12;;;;;;;;;;;;;;;;;;5016501;28;838;-67
2022/05/23 10:42:38;;;;;;;;;;;;;;;;;;5015747;28;714;-67
2022/05/23 10:45:09;;;;;;;;;;;;;;;;;;5015818;28;1910;-67
2022/05/23 10:47:41;;;;;;;;;;;;;;;;;;5015298;28;940;-67
2022/05/23 10:50:06;;;;;;;;;;;;;;;;;;5015104;28;891;-66
2022/05/23 10:52:31;;;;;;;;;;;;;;;;;;5011802;28;845;-66
2022/05/23 10:54:56;;;;;;;;;;;;;;;;;;5011658;28;802;-67
2022/05/23 10:57:29;;;;;;;;;;;;;;;;;;5011485;28;908;-67
2022/05/23 11:00:03;;;;;;;;;;;;;;;;;;5011778;28;1054;-67
2022/05/23 11:02:47;;;;;;;;;;;;;;;;;;5011987;28;782;-67
2022/05/23 11:05:22;;;;;;;;;;;;;;;;;;5012782;28;1951;-66
2022/05/23 11:08:00;;;;;;;;;;;;;;;;;;5010815;28;905;-66
2022/05/23 11:10:25;;;;;;;;;;;;;;;;;;4994249;28;850;-66
2022/05/23 11:13:09;;;;;;;;;;;;;;;;;;5011557;28;936;-66
2022/05/23 11:15:35;;;;;;;;;;;;;;;;;;5011442;28;868;-66
2022/05/23 11:18:19;;;;;;;;;;;;;;;;;;5011685;28;1143;-66
2022/05/23 11:20:46;;;;;;;;;;;;;;;;;;5012075;28;944;-66
2022/05/23 11:23:18;;;;;;;;;;;;;;;;;;5011700;28;1271;-66
2022/05/23 11:25:45;;;;;;;;;;;;;;;;;;5011265;28;1902;-66
2022/05/23 11:34:21;;;;;;;;;;;;;;;;;;5010634;28;983;-66
2022/05/23 11:39:43;;;;;;;;;;;;;;;;;;5015148;28;1145;-66
2022/05/23 11:42:11;;;;;;;;;;;;;;;;;;5015689;28;767;-66
2022/05/23 11:44:43;;;;;;;;;;;;;;;;;;5014807;28;1910;-66
2022/05/23 11:47:12;;;;;;;;;;;;;;;;;;5015676;28;845;-66
2022/05/23 11:49:44;;;;;;;;;;;;;;;;;;5015111;28;853;-66
2022/05/23 11:52:36;;;;;;;;;;;;;;;;;;5015640;28;858;-66
2022/05/23 11:55:01;;;;;;;;;;;;;;;;;;5012159;28;1287;-66
2022/05/23 11:57:37;;;;;;;;;;;;;;;;;;5014686;28;872;-66
2022/05/23 12:00:06;;;;;;;;;;;;;;;;;;5015231;28;861;-66
2022/05/23 12:02:36;;;;;;;;;;;;;;;;;;5015496;28;881;-66
2022/05/23 12:05:01;;;;;;;;;;;;;;;;;;5015284;28;1911;-66
2022/05/23 12:07:42;;;;;;;;;;;;;;;;;;5014941;28;668;-66
2022/05/23 12:10:22;;;;;;;;;;;;;;;;;;5014613;28;873;-66
2022/05/23 12:12:49;;;;;;;;;;;;;;;;;;5014726;28;938;-66
2022/05/23 12:15:32;;;;;;;;;;;;;;;;;;5015034;28;905;-66
2022/05/23 12:17:59;;;;;;;;;;;;;;;;;;5014373;28;936;-66
2022/05/23 12:20:25;;;;;;;;;;;;;;;;;;5014025;28;876;-67
2022/05/23 12:23:08;;;;;;;;;;;;;;;;;;5014608;28;889;-66
2022/05/23 12:25:33;;;;;;;;;;;;;;;;;;5014124;28;1906;-66
2022/05/23 12:28:10;;;;;;;;;;;;;;;;;;5014586;28;825;-66
2022/05/23 12:30:36;;;;;;;;;;;;;;;;;;5013713;28;858;-66
2022/05/23 12:33:01;;;;;;;;;;;;;;;;;;5013601;28;802;-66
2022/05/23 12:35:30;;;;;;;;;;;;;;;;;;5014060;28;900;-66
2022/05/23 12:38:14;;;;;;;;;;;;;;;;;;4996881;28;2134;-66
2022/05/23 12:40:49;;;;;;;;;;;;;;;;;;5014959;28;711;-67
2022/05/23 12:43:17;;;;;;;;;;;;;;;;;;5014588;28;766;-67
2022/05/23 12:45:45;;;;;;;;;;;;;;;;;;5012298;28;1914;-67
2022/05/23 12:48:18;;;;;;;;;;;;;;;;;;5013151;28;833;-67
2022/05/23 12:51:02;;;;;;;;;;;;;;;;;;5013819;28;822;-66
2022/05/23 12:53:28;;;;;;;;;;;;;;;;;;5013458;28;1000;-66
2022/05/23 12:55:57;;;;;;;;;;;;;;;;;;5013977;28;853;-67
2022/05/23 12:58:25;;;;;;;;;;;;;;;;;;5012257;28;1522;-66
2022/05/23 13:00:55;;;;;;;;;;;;;;;;;;5014317;28;920;-66
2022/05/23 13:03:37;;;;;;;;;;;;;;;;;;5014022;28;821;-67
2022/05/23 13:06:12;;;;;;;;;;;;;;;;;;5014710;28;1902;-67
2022/05/23 13:08:44;;;;;;;;;;;;;;;;;;5014390;28;851;-67
2022/05/23 13:11:14;;;;;;;;;;;;;;;;;;5014509;28;778;-66
2022/05/23 13:13:40;;;;;;;;;;;;;;;;;;5013713;28;1046;-67
2022/05/23 13:16:24;;;;;;;;;;;;;;;;;;5014071;28;1008;-67
2022/05/23 13:27:04;;;;;;;;;;;;;;;;;;5014157;28;652;-66
2022/05/23 13:29:30;;;;;;;;;;;;;;;;;;5013570;28;967;-67
2022/05/23 13:32:04;;;;;;;;;;;;;;;;;;5013430;28;1076;-67
2022/05/23 13:34:33;;;;;;;;;;;;;;;;;;5013070;28;881;-66
2022/05/23 13:36:58;;;;;;;;;;;;;;;;;;4996270;28;920;-67
2022/05/23 13:39:23;;;;;;;;;;;;;;;;;;5012668;28;1415;-67
2022/05/23 13:41:49;;;;;;;;;;;;;;;;;;5013692;28;774;-67
2022/05/23 13:44:21;;;;;;;;;;;;;;;;;;5013132;28;1906;-67
2022/05/23 13:46:46;;;;;;;;;;;;;;;;;;5012793;28;1015;-67
2022/05/23 13:49:17;;;;;;;;;;;;;;;;;;5013251;28;959;-67
2022/05/23 13:51:54;;;;;;;;;;;;;;;;;;5013313;28;763;-66
2022/05/23 13:54:28;;;;;;;;;;;;;;;;;;5013735;28;972;-67
2022/05/23 13:57:02;;;;;;;;;;;;;;;;;;5013191;28;842;-67
2022/05/23 13:59:33;;;;;;;;;;;;;;;;;;5013810;28;884;-68
2022/05/23 14:02:19;;;;;;;;;;;;;;;;;;5012136;28;818;-68
2022/05/23 14:04:45;;;;;;;;;;;;;;;;;;5012149;28;1902;-69
2022/05/23 14:07:12;;;;;;;;;;;;;;;;;;5013519;28;938;-68
2022/05/23 14:09:45;;;;;;;;;;;;;;;;;;5013007;28;767;-69
2022/05/23 14:12:12;;;;;;;;;;;;;;;;;;5013558;28;821;-68
2022/05/23 14:14:40;;;;;;;;;;;;;;;;;;5013320;28;783;-68
2022/05/23 14:17:16;;;;;;;;;;;;;;;;;;5013179;28;821;-68
2022/05/23 14:19:45;;;;;;;;;;;;;;;;;;5012897;28;782;-67
2022/05/23 14:22:25;;;;;;;;;;;;;;;;;;5012744;28;925;-68
2022/05/23 14:24:58;;;;;;;;;;;;;;;;;;5012645;28;1965;-68
2022/05/23 14:27:31;;;;;;;;;;;;;;;;;;5012235;28;900;-68
2022/05/23 14:30:10;;;;;;;;;;;;;;;;;;5012136;28;817;-68
2022/05/23 14:32:35;;;;;;;;;;;;;;;;;;5012638;28;1011;-71
2022/05/23 14:35:24;;;;;;;;;;;;;;;;;;5011783;28;860;-71
2022/05/23 14:37:50;;;;;;;;;;;;;;;;;;5002641;28;1705;-71
2022/05/23 14:40:22;;;;;;;;;;;;;;;;;;5011173;28;1046;-71
2022/05/23 14:42:52;;;;;;;;;;;;;;;;;;5011407;28;917;-71
2022/05/23 14:45:20;;;;;;;;;;;;;;;;;;5011904;28;1906;-71
2022/05/23 14:47:55;;;;;;;;;;;;;;;;;;5012070;28;877;-70
2022/05/23 14:50:27;;;;;;;;;;;;;;;;;;5011854;28;906;-70
2022/05/23 14:55:48;;;;;;;;;;;;;;;;;;4980437;28;1282;-70
2022/05/23 15:01:24;;;;;;;;;;;;;;;;;;4993474;28;1101;-70
2022/05/23 15:03:52;;;;;;;;;;;;;;;;;;4991877;28;890;-70
2022/05/23 15:06:18;;;;;;;;;;;;;;;;;;5006929;28;852;-70
2022/05/23 15:08:44;;;;;;;;;;;;;;;;;;4992108;28;913;-70
2022/05/23 15:11:27;;;;;;;;;;;;;;;;;;4991881;28;916;-66
2022/05/23 15:13:53;;;;;;;;;;;;;;;;;;4992579;28;806;-66
2022/05/23 15:16:22;;;;;;;;;;;;;;;;;;4992065;28;809;-66
2022/05/23 15:18:47;;;;;;;;;;;;;;;;;;4992369;28;873;-66
2022/05/23 15:21:12;;;;;;;;;;;;;;;;;;5004810;28;1150;-65
2022/05/23 15:23:40;;;;;;;;;;;;;;;;;;5011467;28;876;-66
2022/05/23 15:26:06;;;;;;;;;;;;;;;;;;5011303;28;1973;-66
2022/05/23 15:28:32;;;;;;;;;;;;;;;;;;5011341;28;909;-66
2022/05/23 15:30:57;;;;;;;;;;;;;;;;;;5010661;28;917;-66
2022/05/23 15:33:22;;;;;;;;;;;;;;;;;;5009195;28;1946;-64
2022/05/23 15:35:48;;;;;;;;;;;;;;;;;;5011632;28;1047;-65
2022/05/23 15:38:14;;;;;;;;;;;;;;;;;;5011865;28;841;-65
2022/05/23 15:40:41;;;;;;;;;;;;;;;;;;5011801;28;1329;-65
2022/05/23 15:43:09;;;;;;;;;;;;;;;;;;4993061;28;1720;-65
2022/05/23 15:45:34;;;;;;;;;;;;;;;;;;5011383;28;1942;-64
2022/05/23 15:48:03;;;;;;;;;;;;;;;;;;5011902;28;849;-64
2022/05/23 15:50:28;;;;;;;;;;;;;;;;;;5011249;28;912;-64
2022/05/23 15:52:53;;;;;;;;;;;;;;;;;;5011652;28;798;-64
2022/05/23 15:55:19;;;;;;;;;;;;;;;;;;5011940;28;754;-64
2022/05/23 15:57:49;;;;;;;;;;;;;;;;;;5011795;28;806;-65
2022/05/23 16:00:16;;;;;;;;;;;;;;;;;;5011697;28;1578;-65
2022/05/23 16:02:42;;;;;;;;;;;;;;;;;;5011522;28;925;-65
2022/05/23 16:05:08;;;;;;;;;;;;;;;;;;5011757;28;1890;-64
2022/05/23 16:07:33;;;;;;;;;;;;;;;;;;5011226;28;1214;-65
2022/05/23 16:09:58;;;;;;;;;;;;;;;;;;5011744;28;798;-65
2022/05/23 16:12:26;;;;;;;;;;;;;;;;;;5011177;28;818;-65
2022/05/23 16:14:51;;;;;;;;;;;;;;;;;;5011555;28;961;-65
2022/05/23 16:17:16;;;;;;;;;;;;;;;;;;5011622;28;964;-65
2022/05/23 16:19:43;;;;;;;;;;;;;;;;;;5010936;28;850;-65
2022/05/23 16:22:10;;;;;;;;;;;;;;;;;;5011876;28;852;-65
2022/05/23 16:24:35;;;;;;;;;;;;;;;;;;5014703;28;1904;-65
2022/05/23 16:27:00;;;;;;;;;;;;;;;;;;5015484;28;960;-65
2022/05/23 16:29:26;;;;;;;;;;;;;;;;;;5015443;28;983;-65
2022/05/23 16:31:52;;;;;;;;;;;;;;;;;;5015751;28;875;-65
2022/05/23 16:37:03;;;;;;;;;;;;;;;;;;5014767;28;642;-65
2022/05/23 16:39:28;;;;;;;;;;;;;;;;;;5016024;28;1362;-65
2022/05/23 16:41:53;;;;;;;;;;;;;;;;;;5018607;28;928;-67
2022/05/23 16:44:19;;;;;;;;;;;;;;;;;;4999750;28;1953;-66
2022/05/23 16:46:45;;;;;;;;;;;;;;;;;;5017275;28;1092;-67
2022/05/23 16:49:12;;;;;;;;;;;;;;;;;;4999583;28;1443;-64
2022/05/23 16:51:38;;;;;;;;;;;;;;;;;;5016812;28;850;-65
2022/05/23 16:54:04;;;;;;;;;;;;;;;;;;5017039;28;933;-65
2022/05/23 16:56:29;;;;;;;;;;;;;;;;;;5015717;28;1058;-65
2022/05/23 16:58:54;;;;;;;;;;;;;;;;;;5015747;28;960;-65
2022/05/23 17:01:22;;;;;;;;;;;;;;;;;;5015704;28;908;-65
2022/05/23 17:03:48;;;;;;;;;;;;;;;;;;5017508;28;838;-65
2022/05/23 17:06:13;;;;;;;;;;;;;;;;;;5017187;28;1961;-66
2022/05/23 17:08:38;;;;;;;;;;;;;;;;;;5016955;28;880;-65
2022/05/23 17:11:04;;;;;;;;;;;;;;;;;;5017519;28;956;-65
2022/05/23 17:13:29;;;;;;;;;;;;;;;;;;5017275;28;762;-65
2022/05/23 17:15:57;;;;;;;;;;;;;;;;;;5016595;28;908;-65
2022/05/23 17:18:23;;;;;;;;;;;;;;;;;;5014284;28;936;-65
2022/05/23 17:20:49;;;;;;;;;;;;;;;;;;5014526;28;830;-65
2022/05/23 17:23:14;;;;;;;;;;;;;;;;;;5014137;28;1011;-65
2022/05/23 17:25:40;;;;;;;;;;;;;;;;;;5014384;28;1963;-67
2022/05/23 17:28:05;;;;;;;;;;;;;;;;;;5014473;28;903;-66
2022/05/23 17:30:31;;;;;;;;;;;;;;;;;;5013960;28;845;-65
2022/05/23 17:32:56;;;;;;;;;;;;;;;;;;4996179;28;1256;-65
2022/05/23 17:35:21;;;;;;;;;;;;;;;;;;5013523;28;846;-65
2022/05/23 17:37:47;;;;;;;;;;;;;;;;;;5014292;28;909;-65
2022/05/23 17:40:14;;;;;;;;;;;;;;;;;;4993082;28;1407;-65
2022/05/23 17:42:40;;;;;;;;;;;;;;;;;;4993721;28;1331;-65
2022/05/23 17:45:06;;;;;;;;;;;;;;;;;;4990237;28;1902;-65
2022/05/23 17:47:31;;;;;;;;;;;;;;;;;;4993247;28;1101;-65
2022/05/23 17:49:58;;;;;;;;;;;;;;;;;;4992458;28;1031;-65
2022/05/23 17:52:24;;;;;;;;;;;;;;;;;;4991787;28;873;-69
2022/05/23 17:54:50;;;;;;;;;;;;;;;;;;4993609;28;862;-65
2022/05/23 17:57:15;;;;;;;;;;;;;;;;;;4992851;28;869;-65
2022/05/23 17:59:40;;;;;;;;;;;;;;;;;;4993367;28;876;-65
2022/05/23 18:02:06;;;;;;;;;;;;;;;;;;4993378;28;834;-65
2022/05/23 18:04:32;;;;;;;;;;;;;;;;;;4991626;28;1969;-65
2022/05/23 18:06:57;;;;;;;;;;;;;;;;;;4990803;28;976;-65
2022/05/23 18:09:23;;;;;;;;;;;;;;;;;;4992081;28;1057;-65
2022/05/23 18:11:48;;;;;;;;;;;;;;;;;;4993319;28;944;-65
2022/05/23 18:19:42;;;;;;;;;;;;;;;;;;4992967;28;863;-65
2022/05/23 18:22:08;;;;;;;;;;;;;;;;;;4993112;28;869;-65
2022/05/23 18:24:33;;;;;;;;;;;;;;;;;;4991906;28;1975;-65
2022/05/23 18:27:00;;;;;;;;;;;;;;;;;;4993215;28;818;-65
2022/05/23 18:29:26;;;;;;;;;;;;;;;;;;4992379;28;837;-64
2022/05/23 18:31:51;;;;;;;;;;;;;;;;;;4992506;28;854;-65
2022/05/23 18:34:20;;;;;;;;;;;;;;;;;;4992435;28;842;-64
2022/05/23 18:36:46;;;;;;;;;;;;;;;;;;4992998;28;755;-65
2022/05/23 18:39:12;;;;;;;;;;;;;;;;;;4997563;28;1311;-65